sensor_id;sensor_type;location;lat;lon;timestamp;temperature;humidity
44851;DHT22;30583;48.714;9.386;2024-03-25T00:01:14;7.70;70.90
44851;DHT22;30583;48.714;9.386;2024-03-25T00:03:39;7.80;70.40
44851;DHT22;30583;48.714;9.386;2024-03-25T00:06:05;7.70;70.00
44851;DHT22;30583;48.714;9.386;2024-03-25T00:08:32;7.80;70.10
44851;DHT22;30583;48.714;9.386;2024-03-25T00:10:57;7.90;70.10
44851;DHT22;30583;48.714;9.386;2024-03-25T00:13:23;7.80;70.30
44851;DHT22;30583;48.714;9.386;2024-03-25T00:15:49;7.80;70.10
44851;DHT22;30583;48.714;9.386;2024-03-25T00:18:14;7.40;70.40
44851;DHT22;30583;48.714;9.386;2024-03-25T00:20:40;7.40;70.80
44851;DHT22;30583;48.714;9.386;2024-03-25T00:23:06;7.70;70.50
44851;DHT22;30583;48.714;9.386;2024-03-25T00:25:32;7.70;69.90
44851;DHT22;30583;48.714;9.386;2024-03-25T00:27:58;7.70;70.10
44851;DHT22;30583;48.714;9.386;2024-03-25T00:30:23;7.90;69.90
44851;DHT22;30583;48.714;9.386;2024-03-25T00:32:49;8.00;69.60
44851;DHT22;30583;48.714;9.386;2024-03-25T00:35:15;7.70;70.10
44851;DHT22;30583;48.714;9.386;2024-03-25T00:37:40;7.70;69.20
44851;DHT22;30583;48.714;9.386;2024-03-25T00:40:07;7.90;69.50
44851;DHT22;30583;48.714;9.386;2024-03-25T00:42:33;7.90;69.30
44851;DHT22;30583;48.714;9.386;2024-03-25T00:44:58;7.90;69.40
44851;DHT22;30583;48.714;9.386;2024-03-25T00:47:25;8.00;69.10
44851;DHT22;30583;48.714;9.386;2024-03-25T00:49:51;8.00;69.00
44851;DHT22;30583;48.714;9.386;2024-03-25T00:52:17;7.90;69.50
44851;DHT22;30583;48.714;9.386;2024-03-25T00:54:42;7.90;70.00
44851;DHT22;30583;48.714;9.386;2024-03-25T00:57:08;7.50;69.20
44851;DHT22;30583;48.714;9.386;2024-03-25T00:59:33;7.60;70.20
44851;DHT22;30583;48.714;9.386;2024-03-25T01:01:59;7.70;69.30
44851;DHT22;30583;48.714;9.386;2024-03-25T01:04:24;7.80;69.20
44851;DHT22;30583;48.714;9.386;2024-03-25T01:06:50;7.70;69.50
44851;DHT22;30583;48.714;9.386;2024-03-25T01:09:16;7.90;69.30
44851;DHT22;30583;48.714;9.386;2024-03-25T01:11:41;7.90;68.90
44851;DHT22;30583;48.714;9.386;2024-03-25T01:14:07;7.80;69.30
44851;DHT22;30583;48.714;9.386;2024-03-25T01:16:33;7.80;69.80
44851;DHT22;30583;48.714;9.386;2024-03-25T01:18:58;7.70;69.80
44851;DHT22;30583;48.714;9.386;2024-03-25T01:21:24;7.90;69.40
44851;DHT22;30583;48.714;9.386;2024-03-25T01:23:50;7.70;70.20
44851;DHT22;30583;48.714;9.386;2024-03-25T01:26:16;7.70;70.80
44851;DHT22;30583;48.714;9.386;2024-03-25T01:28:42;7.70;70.50
44851;DHT22;30583;48.714;9.386;2024-03-25T01:31:08;7.70;70.70
44851;DHT22;30583;48.714;9.386;2024-03-25T01:33:34;7.60;71.40
44851;DHT22;30583;48.714;9.386;2024-03-25T01:36:00;7.50;71.50
44851;DHT22;30583;48.714;9.386;2024-03-25T01:38:25;7.60;71.40
44851;DHT22;30583;48.714;9.386;2024-03-25T01:40:51;7.80;70.90
44851;DHT22;30583;48.714;9.386;2024-03-25T01:43:17;7.50;70.80
44851;DHT22;30583;48.714;9.386;2024-03-25T01:45:42;7.60;71.20
44851;DHT22;30583;48.714;9.386;2024-03-25T01:48:09;7.80;70.60
44851;DHT22;30583;48.714;9.386;2024-03-25T01:50:39;7.60;70.30
44851;DHT22;30583;48.714;9.386;2024-03-25T01:53:06;7.70;70.70
44851;DHT22;30583;48.714;9.386;2024-03-25T01:55:34;7.20;71.30
44851;DHT22;30583;48.714;9.386;2024-03-25T01:58:01;7.20;71.00
44851;DHT22;30583;48.714;9.386;2024-03-25T02:00:27;6.90;71.80
44851;DHT22;30583;48.714;9.386;2024-03-25T02:02:53;6.70;72.20
44851;DHT22;30583;48.714;9.386;2024-03-25T02:05:20;7.20;71.80
44851;DHT22;30583;48.714;9.386;2024-03-25T02:07:46;7.60;70.70
44851;DHT22;30583;48.714;9.386;2024-03-25T02:10:12;7.20;70.70
44851;DHT22;30583;48.714;9.386;2024-03-25T02:12:44;7.10;71.90
44851;DHT22;30583;48.714;9.386;2024-03-25T02:15:10;7.00;72.20
44851;DHT22;30583;48.714;9.386;2024-03-25T02:17:37;7.00;71.80
44851;DHT22;30583;48.714;9.386;2024-03-25T02:20:03;6.80;71.90
44851;DHT22;30583;48.714;9.386;2024-03-25T02:22:31;7.10;71.80
44851;DHT22;30583;48.714;9.386;2024-03-25T02:24:57;7.20;72.00
44851;DHT22;30583;48.714;9.386;2024-03-25T02:27:27;7.60;71.20
44851;DHT22;30583;48.714;9.386;2024-03-25T02:30:05;7.70;71.00
44851;DHT22;30583;48.714;9.386;2024-03-25T02:32:33;7.70;71.00
44851;DHT22;30583;48.714;9.386;2024-03-25T02:34:58;7.70;70.90
44851;DHT22;30583;48.714;9.386;2024-03-25T02:37:25;7.70;70.60
44851;DHT22;30583;48.714;9.386;2024-03-25T02:39:51;7.60;71.00
44851;DHT22;30583;48.714;9.386;2024-03-25T02:42:18;7.30;70.50
44851;DHT22;30583;48.714;9.386;2024-03-25T02:44:45;7.70;70.30
44851;DHT22;30583;48.714;9.386;2024-03-25T02:47:11;7.70;70.30
44851;DHT22;30583;48.714;9.386;2024-03-25T02:49:37;7.50;71.00
44851;DHT22;30583;48.714;9.386;2024-03-25T02:52:02;7.10;71.00
44851;DHT22;30583;48.714;9.386;2024-03-25T02:54:28;7.30;70.70
44851;DHT22;30583;48.714;9.386;2024-03-25T02:56:54;7.00;70.90
44851;DHT22;30583;48.714;9.386;2024-03-25T02:59:19;7.10;71.40
44851;DHT22;30583;48.714;9.386;2024-03-25T03:01:45;6.70;71.50
44851;DHT22;30583;48.714;9.386;2024-03-25T03:04:10;6.70;72.70
44851;DHT22;30583;48.714;9.386;2024-03-25T03:06:36;7.10;71.60
44851;DHT22;30583;48.714;9.386;2024-03-25T03:09:01;7.60;70.30
44851;DHT22;30583;48.714;9.386;2024-03-25T03:11:27;7.70;69.80
44851;DHT22;30583;48.714;9.386;2024-03-25T03:13:52;7.10;70.40
44851;DHT22;30583;48.714;9.386;2024-03-25T03:16:18;7.20;70.90
44851;DHT22;30583;48.714;9.386;2024-03-25T03:18:43;7.20;71.10
44851;DHT22;30583;48.714;9.386;2024-03-25T03:21:09;7.20;71.30
44851;DHT22;30583;48.714;9.386;2024-03-25T03:23:35;7.40;71.00
44851;DHT22;30583;48.714;9.386;2024-03-25T03:26:00;7.60;70.30
44851;DHT22;30583;48.714;9.386;2024-03-25T03:28:26;7.40;70.30
44851;DHT22;30583;48.714;9.386;2024-03-25T03:30:53;6.90;71.20
44851;DHT22;30583;48.714;9.386;2024-03-25T03:33:19;7.10;71.40
44851;DHT22;30583;48.714;9.386;2024-03-25T03:35:44;7.00;71.40
44851;DHT22;30583;48.714;9.386;2024-03-25T03:38:10;6.80;72.60
44851;DHT22;30583;48.714;9.386;2024-03-25T03:40:35;6.90;72.30
44851;DHT22;30583;48.714;9.386;2024-03-25T03:43:01;6.90;72.10
44851;DHT22;30583;48.714;9.386;2024-03-25T03:45:26;6.70;72.90
44851;DHT22;30583;48.714;9.386;2024-03-25T03:47:57;7.10;72.20
44851;DHT22;30583;48.714;9.386;2024-03-25T03:50:23;7.40;71.40
44851;DHT22;30583;48.714;9.386;2024-03-25T03:52:48;7.40;70.60
44851;DHT22;30583;48.714;9.386;2024-03-25T03:55:14;7.20;70.80
44851;DHT22;30583;48.714;9.386;2024-03-25T03:57:39;6.90;72.10
44851;DHT22;30583;48.714;9.386;2024-03-25T04:00:05;7.00;71.90
44851;DHT22;30583;48.714;9.386;2024-03-25T04:02:31;6.70;72.60
44851;DHT22;30583;48.714;9.386;2024-03-25T04:04:57;6.70;72.60
44851;DHT22;30583;48.714;9.386;2024-03-25T04:07:22;6.70;72.50
44851;DHT22;30583;48.714;9.386;2024-03-25T04:09:53;7.00;72.50
44851;DHT22;30583;48.714;9.386;2024-03-25T04:12:19;7.30;71.60
44851;DHT22;30583;48.714;9.386;2024-03-25T04:14:48;7.40;71.50
44851;DHT22;30583;48.714;9.386;2024-03-25T04:17:20;7.50;70.80
44851;DHT22;30583;48.714;9.386;2024-03-25T04:19:47;7.60;70.90
44851;DHT22;30583;48.714;9.386;2024-03-25T04:22:13;7.60;70.90
44851;DHT22;30583;48.714;9.386;2024-03-25T04:24:39;7.60;71.00
44851;DHT22;30583;48.714;9.386;2024-03-25T04:27:04;7.00;71.10
44851;DHT22;30583;48.714;9.386;2024-03-25T04:29:30;7.10;72.40
44851;DHT22;30583;48.714;9.386;2024-03-25T04:31:55;7.30;71.70
44851;DHT22;30583;48.714;9.386;2024-03-25T04:34:21;7.40;71.30
44851;DHT22;30583;48.714;9.386;2024-03-25T04:36:48;7.60;71.10
44851;DHT22;30583;48.714;9.386;2024-03-25T04:39:14;7.60;71.00
44851;DHT22;30583;48.714;9.386;2024-03-25T04:41:40;7.60;71.00
44851;DHT22;30583;48.714;9.386;2024-03-25T04:44:06;7.30;70.50
44851;DHT22;30583;48.714;9.386;2024-03-25T04:46:31;7.30;71.00
44851;DHT22;30583;48.714;9.386;2024-03-25T04:48:57;7.40;70.50
44851;DHT22;30583;48.714;9.386;2024-03-25T04:51:23;7.20;71.20
44851;DHT22;30583;48.714;9.386;2024-03-25T04:53:48;7.10;71.30
44851;DHT22;30583;48.714;9.386;2024-03-25T04:56:14;7.10;71.00
44851;DHT22;30583;48.714;9.386;2024-03-25T04:58:39;7.00;70.90
44851;DHT22;30583;48.714;9.386;2024-03-25T05:01:05;6.80;71.70
44851;DHT22;30583;48.714;9.386;2024-03-25T05:03:30;7.10;71.40
44851;DHT22;30583;48.714;9.386;2024-03-25T05:05:56;7.30;70.90
44851;DHT22;30583;48.714;9.386;2024-03-25T05:08:22;7.20;70.50
44851;DHT22;30583;48.714;9.386;2024-03-25T05:10:47;7.30;70.80
44851;DHT22;30583;48.714;9.386;2024-03-25T05:13:13;7.20;71.20
44851;DHT22;30583;48.714;9.386;2024-03-25T05:15:38;7.30;70.80
44851;DHT22;30583;48.714;9.386;2024-03-25T05:18:04;7.30;70.80
44851;DHT22;30583;48.714;9.386;2024-03-25T05:20:30;7.40;70.60
44851;DHT22;30583;48.714;9.386;2024-03-25T05:22:56;7.60;70.20
44851;DHT22;30583;48.714;9.386;2024-03-25T05:25:21;7.60;70.00
44851;DHT22;30583;48.714;9.386;2024-03-25T05:27:54;7.20;69.80
44851;DHT22;30583;48.714;9.386;2024-03-25T05:30:19;6.80;71.40
44851;DHT22;30583;48.714;9.386;2024-03-25T05:32:45;7.10;71.10
44851;DHT22;30583;48.714;9.386;2024-03-25T05:35:10;6.90;71.60
44851;DHT22;30583;48.714;9.386;2024-03-25T05:37:36;6.80;72.20
44851;DHT22;30583;48.714;9.386;2024-03-25T05:40:02;7.40;70.50
44851;DHT22;30583;48.714;9.386;2024-03-25T05:42:28;7.30;70.20
44851;DHT22;30583;48.714;9.386;2024-03-25T05:44:54;7.50;69.60
44851;DHT22;30583;48.714;9.386;2024-03-25T05:47:19;7.60;69.40
44851;DHT22;30583;48.714;9.386;2024-03-25T05:49:47;7.70;68.80
44851;DHT22;30583;48.714;9.386;2024-03-25T05:52:12;7.70;68.60
44851;DHT22;30583;48.714;9.386;2024-03-25T05:54:38;7.70;68.60
44851;DHT22;30583;48.714;9.386;2024-03-25T05:57:03;7.50;68.60
44851;DHT22;30583;48.714;9.386;2024-03-25T05:59:29;7.70;68.70
44851;DHT22;30583;48.714;9.386;2024-03-25T06:01:54;9.20;70.80
44851;DHT22;30583;48.714;9.386;2024-03-25T06:04:20;8.30;70.00
44851;DHT22;30583;48.714;9.386;2024-03-25T06:06:46;8.20;68.60
44851;DHT22;30583;48.714;9.386;2024-03-25T06:09:11;8.10;68.60
44851;DHT22;30583;48.714;9.386;2024-03-25T06:11:37;8.20;70.20
44851;DHT22;30583;48.714;9.386;2024-03-25T06:14:02;8.30;70.50
44851;DHT22;30583;48.714;9.386;2024-03-25T06:16:28;8.30;70.00
44851;DHT22;30583;48.714;9.386;2024-03-25T06:18:53;8.10;69.40
44851;DHT22;30583;48.714;9.386;2024-03-25T06:21:19;8.20;69.10
44851;DHT22;30583;48.714;9.386;2024-03-25T06:23:44;8.20;68.50
44851;DHT22;30583;48.714;9.386;2024-03-25T06:26:10;7.90;69.00
44851;DHT22;30583;48.714;9.386;2024-03-25T06:28:36;7.80;69.00
44851;DHT22;30583;48.714;9.386;2024-03-25T06:31:01;8.10;68.00
44851;DHT22;30583;48.714;9.386;2024-03-25T06:33:46;8.20;67.70
44851;DHT22;30583;48.714;9.386;2024-03-25T06:36:30;8.20;67.90
44851;DHT22;30583;48.714;9.386;2024-03-25T06:38:56;8.00;67.50
44851;DHT22;30583;48.714;9.386;2024-03-25T06:41:21;8.00;67.50
44851;DHT22;30583;48.714;9.386;2024-03-25T06:43:47;7.90;67.20
44851;DHT22;30583;48.714;9.386;2024-03-25T06:46:12;7.80;67.90
44851;DHT22;30583;48.714;9.386;2024-03-25T06:48:38;7.90;67.60
44851;DHT22;30583;48.714;9.386;2024-03-25T06:51:04;7.90;67.90
44851;DHT22;30583;48.714;9.386;2024-03-25T06:53:29;7.80;67.60
44851;DHT22;30583;48.714;9.386;2024-03-25T06:55:57;7.80;67.60
44851;DHT22;30583;48.714;9.386;2024-03-25T06:58:24;7.80;67.00
44851;DHT22;30583;48.714;9.386;2024-03-25T07:00:50;7.60;68.30
44851;DHT22;30583;48.714;9.386;2024-03-25T07:03:20;7.60;68.00
44851;DHT22;30583;48.714;9.386;2024-03-25T07:05:47;7.80;67.80
44851;DHT22;30583;48.714;9.386;2024-03-25T07:08:13;8.00;67.40
44851;DHT22;30583;48.714;9.386;2024-03-25T07:10:41;8.10;67.00
44851;DHT22;30583;48.714;9.386;2024-03-25T07:13:07;8.40;66.40
44851;DHT22;30583;48.714;9.386;2024-03-25T07:15:33;8.60;66.40
44851;DHT22;30583;48.714;9.386;2024-03-25T07:17:58;7.80;67.50
44851;DHT22;30583;48.714;9.386;2024-03-25T07:20:24;7.60;68.30
44851;DHT22;30583;48.714;9.386;2024-03-25T07:22:49;7.40;69.10
44851;DHT22;30583;48.714;9.386;2024-03-25T07:25:15;7.70;68.00
44851;DHT22;30583;48.714;9.386;2024-03-25T07:27:41;7.90;67.30
44851;DHT22;30583;48.714;9.386;2024-03-25T07:30:07;7.90;67.10
44851;DHT22;30583;48.714;9.386;2024-03-25T07:32:35;8.20;66.70
44851;DHT22;30583;48.714;9.386;2024-03-25T07:35:01;8.40;66.20
44851;DHT22;30583;48.714;9.386;2024-03-25T07:37:26;8.50;65.80
44851;DHT22;30583;48.714;9.386;2024-03-25T07:39:52;8.30;66.30
44851;DHT22;30583;48.714;9.386;2024-03-25T07:42:18;8.50;66.20
44851;DHT22;30583;48.714;9.386;2024-03-25T07:44:43;8.70;65.50
44851;DHT22;30583;48.714;9.386;2024-03-25T07:47:09;8.40;65.60
44851;DHT22;30583;48.714;9.386;2024-03-25T07:49:35;8.20;66.70
44851;DHT22;30583;48.714;9.386;2024-03-25T07:52:01;8.20;66.50
44851;DHT22;30583;48.714;9.386;2024-03-25T07:54:26;7.90;66.60
44851;DHT22;30583;48.714;9.386;2024-03-25T07:56:55;8.20;66.80
44851;DHT22;30583;48.714;9.386;2024-03-25T07:59:20;8.40;66.10
44851;DHT22;30583;48.714;9.386;2024-03-25T08:01:46;8.20;66.20
44851;DHT22;30583;48.714;9.386;2024-03-25T08:04:11;8.40;65.90
44851;DHT22;30583;48.714;9.386;2024-03-25T08:06:38;8.20;66.70
44851;DHT22;30583;48.714;9.386;2024-03-25T08:09:03;8.40;66.70
44851;DHT22;30583;48.714;9.386;2024-03-25T08:11:32;8.60;66.40
44851;DHT22;30583;48.714;9.386;2024-03-25T08:13:58;8.40;65.80
44851;DHT22;30583;48.714;9.386;2024-03-25T08:16:24;8.00;67.20
44851;DHT22;30583;48.714;9.386;2024-03-25T08:18:50;8.50;66.10
44851;DHT22;30583;48.714;9.386;2024-03-25T08:21:16;8.60;65.40
44851;DHT22;30583;48.714;9.386;2024-03-25T08:23:44;8.40;65.90
44851;DHT22;30583;48.714;9.386;2024-03-25T08:26:09;8.40;65.70
44851;DHT22;30583;48.714;9.386;2024-03-25T08:28:35;8.00;67.00
44851;DHT22;30583;48.714;9.386;2024-03-25T08:31:00;8.20;66.20
44851;DHT22;30583;48.714;9.386;2024-03-25T08:33:26;8.30;66.70
44851;DHT22;30583;48.714;9.386;2024-03-25T08:35:51;8.60;64.80
44851;DHT22;30583;48.714;9.386;2024-03-25T08:38:17;8.70;64.20
44851;DHT22;30583;48.714;9.386;2024-03-25T08:40:43;9.10;63.80
44851;DHT22;30583;48.714;9.386;2024-03-25T08:43:08;9.10;64.40
44851;DHT22;30583;48.714;9.386;2024-03-25T08:45:34;9.30;63.50
44851;DHT22;30583;48.714;9.386;2024-03-25T08:47:59;9.20;63.10
44851;DHT22;30583;48.714;9.386;2024-03-25T08:50:25;9.30;64.00
44851;DHT22;30583;48.714;9.386;2024-03-25T08:52:51;9.20;64.60
44851;DHT22;30583;48.714;9.386;2024-03-25T08:55:16;9.20;64.30
44851;DHT22;30583;48.714;9.386;2024-03-25T08:57:42;9.30;63.90
44851;DHT22;30583;48.714;9.386;2024-03-25T09:00:07;9.70;61.10
44851;DHT22;30583;48.714;9.386;2024-03-25T09:02:37;10.20;61.20
44851;DHT22;30583;48.714;9.386;2024-03-25T09:05:03;10.30;59.90
44851;DHT22;30583;48.714;9.386;2024-03-25T09:07:32;10.20;60.60
44851;DHT22;30583;48.714;9.386;2024-03-25T09:09:58;10.30;61.00
44851;DHT22;30583;48.714;9.386;2024-03-25T09:12:42;10.40;60.60
44851;DHT22;30583;48.714;9.386;2024-03-25T09:15:08;10.90;59.10
44851;DHT22;30583;48.714;9.386;2024-03-25T09:17:38;10.80;58.70
44851;DHT22;30583;48.714;9.386;2024-03-25T09:20:04;10.50;58.50
44851;DHT22;30583;48.714;9.386;2024-03-25T09:22:41;11.10;56.90
44851;DHT22;30583;48.714;9.386;2024-03-25T09:25:07;11.00;56.20
44851;DHT22;30583;48.714;9.386;2024-03-25T09:27:33;10.60;56.20
44851;DHT22;30583;48.714;9.386;2024-03-25T09:29:58;11.10;56.20
44851;DHT22;30583;48.714;9.386;2024-03-25T09:32:24;11.00;55.70
44851;DHT22;30583;48.714;9.386;2024-03-25T09:34:51;11.40;55.90
44851;DHT22;30583;48.714;9.386;2024-03-25T09:37:17;11.50;54.20
44851;DHT22;30583;48.714;9.386;2024-03-25T09:39:43;11.70;52.10
44851;DHT22;30583;48.714;9.386;2024-03-25T09:42:14;12.40;52.10
44851;DHT22;30583;48.714;9.386;2024-03-25T09:44:41;12.70;51.10
44851;DHT22;30583;48.714;9.386;2024-03-25T09:47:07;11.90;53.60
44851;DHT22;30583;48.714;9.386;2024-03-25T09:49:35;11.70;53.70
44851;DHT22;30583;48.714;9.386;2024-03-25T09:52:02;11.60;52.30
44851;DHT22;30583;48.714;9.386;2024-03-25T09:54:28;11.50;53.50
44851;DHT22;30583;48.714;9.386;2024-03-25T09:56:53;11.90;53.40
44851;DHT22;30583;48.714;9.386;2024-03-25T09:59:20;11.90;51.80
44851;DHT22;30583;48.714;9.386;2024-03-25T10:01:45;11.80;53.60
44851;DHT22;30583;48.714;9.386;2024-03-25T10:04:11;11.90;50.50
44851;DHT22;30583;48.714;9.386;2024-03-25T10:06:38;11.90;49.50
44851;DHT22;30583;48.714;9.386;2024-03-25T10:09:05;11.80;49.40
44851;DHT22;30583;48.714;9.386;2024-03-25T10:11:32;11.80;51.30
44851;DHT22;30583;48.714;9.386;2024-03-25T10:14:03;12.60;48.50
44851;DHT22;30583;48.714;9.386;2024-03-25T10:16:29;12.50;50.80
44851;DHT22;30583;48.714;9.386;2024-03-25T10:18:54;12.40;50.10
44851;DHT22;30583;48.714;9.386;2024-03-25T10:21:20;13.20;50.00
44851;DHT22;30583;48.714;9.386;2024-03-25T10:23:47;12.60;49.00
44851;DHT22;30583;48.714;9.386;2024-03-25T10:26:30;13.20;49.00
44851;DHT22;30583;48.714;9.386;2024-03-25T10:29:04;13.20;48.10
44851;DHT22;30583;48.714;9.386;2024-03-25T10:31:32;13.50;48.00
44851;DHT22;30583;48.714;9.386;2024-03-25T10:33:58;13.40;49.10
44851;DHT22;30583;48.714;9.386;2024-03-25T10:36:24;13.70;49.00
44851;DHT22;30583;48.714;9.386;2024-03-25T10:38:57;12.80;47.20
44851;DHT22;30583;48.714;9.386;2024-03-25T10:41:24;13.20;46.40
44851;DHT22;30583;48.714;9.386;2024-03-25T10:43:52;13.90;45.90
44851;DHT22;30583;48.714;9.386;2024-03-25T10:46:20;14.20;44.60
44851;DHT22;30583;48.714;9.386;2024-03-25T10:48:54;14.50;43.20
44851;DHT22;30583;48.714;9.386;2024-03-25T10:51:21;14.40;45.70
44851;DHT22;30583;48.714;9.386;2024-03-25T10:53:51;14.60;45.20
44851;DHT22;30583;48.714;9.386;2024-03-25T10:56:20;14.70;44.90
44851;DHT22;30583;48.714;9.386;2024-03-25T10:58:48;14.70;45.70
44851;DHT22;30583;48.714;9.386;2024-03-25T11:01:18;15.00;44.00
44851;DHT22;30583;48.714;9.386;2024-03-25T11:03:48;15.20;45.30
44851;DHT22;30583;48.714;9.386;2024-03-25T11:06:14;15.00;44.90
44851;DHT22;30583;48.714;9.386;2024-03-25T11:08:40;15.40;44.30
44851;DHT22;30583;48.714;9.386;2024-03-25T11:11:07;15.30;43.20
44851;DHT22;30583;48.714;9.386;2024-03-25T11:13:33;14.90;43.30
44851;DHT22;30583;48.714;9.386;2024-03-25T11:15:59;15.00;43.10
44851;DHT22;30583;48.714;9.386;2024-03-25T11:18:26;15.20;44.20
44851;DHT22;30583;48.714;9.386;2024-03-25T11:21:04;15.60;42.30
44851;DHT22;30583;48.714;9.386;2024-03-25T11:23:38;15.70;41.90
44851;DHT22;30583;48.714;9.386;2024-03-25T11:26:19;15.80;41.70
44851;DHT22;30583;48.714;9.386;2024-03-25T11:28:45;16.10;41.00
44851;DHT22;30583;48.714;9.386;2024-03-25T11:31:11;15.90;41.90
44851;DHT22;30583;48.714;9.386;2024-03-25T11:33:39;16.10;40.90
44851;DHT22;30583;48.714;9.386;2024-03-25T11:36:05;16.50;42.70
44851;DHT22;30583;48.714;9.386;2024-03-25T11:38:30;15.50;40.40
44851;DHT22;30583;48.714;9.386;2024-03-25T11:40:56;16.40;41.40
44851;DHT22;30583;48.714;9.386;2024-03-25T11:43:23;16.10;39.50
44851;DHT22;30583;48.714;9.386;2024-03-25T11:45:48;16.70;39.70
44851;DHT22;30583;48.714;9.386;2024-03-25T11:48:17;16.40;39.20
44851;DHT22;30583;48.714;9.386;2024-03-25T11:50:47;16.70;40.50
44851;DHT22;30583;48.714;9.386;2024-03-25T11:53:13;17.00;38.40
44851;DHT22;30583;48.714;9.386;2024-03-25T11:55:40;16.70;36.50
44851;DHT22;30583;48.714;9.386;2024-03-25T11:58:06;15.00;36.40
44851;DHT22;30583;48.714;9.386;2024-03-25T12:00:32;14.60;37.70
44851;DHT22;30583;48.714;9.386;2024-03-25T12:02:58;14.90;37.60
44851;DHT22;30583;48.714;9.386;2024-03-25T12:05:24;14.90;36.00
44851;DHT22;30583;48.714;9.386;2024-03-25T12:07:50;14.90;36.80
44851;DHT22;30583;48.714;9.386;2024-03-25T12:10:16;16.20;35.90
44851;DHT22;30583;48.714;9.386;2024-03-25T12:13:00;14.80;35.70
44851;DHT22;30583;48.714;9.386;2024-03-25T12:15:25;16.20;33.50
44851;DHT22;30583;48.714;9.386;2024-03-25T12:17:52;16.20;32.60
44851;DHT22;30583;48.714;9.386;2024-03-25T12:20:18;16.30;32.50
44851;DHT22;30583;48.714;9.386;2024-03-25T12:22:44;16.60;33.20
44851;DHT22;30583;48.714;9.386;2024-03-25T12:25:10;16.70;32.40
44851;DHT22;30583;48.714;9.386;2024-03-25T12:27:38;17.40;33.20
44851;DHT22;30583;48.714;9.386;2024-03-25T12:30:08;17.30;31.50
44851;DHT22;30583;48.714;9.386;2024-03-25T12:32:44;15.80;33.50
44851;DHT22;30583;48.714;9.386;2024-03-25T12:35:14;16.40;33.50
44851;DHT22;30583;48.714;9.386;2024-03-25T12:37:46;17.20;33.50
44851;DHT22;30583;48.714;9.386;2024-03-25T12:40:26;17.60;32.10
44851;DHT22;30583;48.714;9.386;2024-03-25T12:42:52;17.60;31.20
44851;DHT22;30583;48.714;9.386;2024-03-25T12:45:19;17.70;33.00
44851;DHT22;30583;48.714;9.386;2024-03-25T12:47:45;18.50;31.50
44851;DHT22;30583;48.714;9.386;2024-03-25T12:50:10;18.90;30.60
44851;DHT22;30583;48.714;9.386;2024-03-25T12:52:36;18.10;31.80
44851;DHT22;30583;48.714;9.386;2024-03-25T12:55:02;17.80;32.20
44851;DHT22;30583;48.714;9.386;2024-03-25T12:57:29;16.70;32.90
44851;DHT22;30583;48.714;9.386;2024-03-25T12:59:54;17.30;34.80
44851;DHT22;30583;48.714;9.386;2024-03-25T13:02:20;18.10;33.90
44851;DHT22;30583;48.714;9.386;2024-03-25T13:04:45;17.70;32.80
44851;DHT22;30583;48.714;9.386;2024-03-25T13:07:11;17.50;32.70
44851;DHT22;30583;48.714;9.386;2024-03-25T13:09:36;17.50;34.60
44851;DHT22;30583;48.714;9.386;2024-03-25T13:12:03;17.40;32.20
44851;DHT22;30583;48.714;9.386;2024-03-25T13:14:29;17.20;34.50
44851;DHT22;30583;48.714;9.386;2024-03-25T13:16:55;18.00;33.00
44851;DHT22;30583;48.714;9.386;2024-03-25T13:19:20;18.10;32.40
44851;DHT22;30583;48.714;9.386;2024-03-25T13:21:46;16.80;34.30
44851;DHT22;30583;48.714;9.386;2024-03-25T13:24:13;17.50;35.50
44851;DHT22;30583;48.714;9.386;2024-03-25T13:26:39;18.40;32.80
44851;DHT22;30583;48.714;9.386;2024-03-25T13:29:04;19.20;30.80
44851;DHT22;30583;48.714;9.386;2024-03-25T13:31:30;18.30;31.20
44851;DHT22;30583;48.714;9.386;2024-03-25T13:33:56;17.50;33.20
44851;DHT22;30583;48.714;9.386;2024-03-25T13:36:21;17.80;32.90
44851;DHT22;30583;48.714;9.386;2024-03-25T13:38:47;17.50;32.50
44851;DHT22;30583;48.714;9.386;2024-03-25T13:41:12;16.20;35.30
44851;DHT22;30583;48.714;9.386;2024-03-25T13:43:44;17.70;32.90
44851;DHT22;30583;48.714;9.386;2024-03-25T13:46:10;17.60;33.50
44851;DHT22;30583;48.714;9.386;2024-03-25T13:48:37;18.40;33.00
44851;DHT22;30583;48.714;9.386;2024-03-25T13:51:03;18.30;33.20
44851;DHT22;30583;48.714;9.386;2024-03-25T13:53:29;18.00;34.00
44851;DHT22;30583;48.714;9.386;2024-03-25T13:55:54;20.00;30.60
44851;DHT22;30583;48.714;9.386;2024-03-25T13:58:20;19.40;31.60
44851;DHT22;30583;48.714;9.386;2024-03-25T14:00:45;18.40;31.50
44851;DHT22;30583;48.714;9.386;2024-03-25T14:03:11;17.10;33.50
44851;DHT22;30583;48.714;9.386;2024-03-25T14:05:36;16.50;33.30
44851;DHT22;30583;48.714;9.386;2024-03-25T14:08:02;16.50;35.40
44851;DHT22;30583;48.714;9.386;2024-03-25T14:10:28;16.80;34.20
44851;DHT22;30583;48.714;9.386;2024-03-25T14:12:55;16.50;32.80
44851;DHT22;30583;48.714;9.386;2024-03-25T14:15:21;16.70;34.30
44851;DHT22;30583;48.714;9.386;2024-03-25T14:17:46;18.10;34.20
44851;DHT22;30583;48.714;9.386;2024-03-25T14:20:12;16.50;34.60
44851;DHT22;30583;48.714;9.386;2024-03-25T14:22:38;16.00;35.40
44851;DHT22;30583;48.714;9.386;2024-03-25T14:25:03;17.10;34.40
44851;DHT22;30583;48.714;9.386;2024-03-25T14:27:29;17.20;33.70
44851;DHT22;30583;48.714;9.386;2024-03-25T14:29:55;16.80;32.80
44851;DHT22;30583;48.714;9.386;2024-03-25T14:32:21;17.90;33.30
44851;DHT22;30583;48.714;9.386;2024-03-25T14:34:47;17.60;32.20
44851;DHT22;30583;48.714;9.386;2024-03-25T14:37:13;16.50;33.80
44851;DHT22;30583;48.714;9.386;2024-03-25T14:39:39;16.50;34.20
44851;DHT22;30583;48.714;9.386;2024-03-25T14:42:07;16.60;34.00
44851;DHT22;30583;48.714;9.386;2024-03-25T14:44:33;15.20;35.10
44851;DHT22;30583;48.714;9.386;2024-03-25T14:46:58;16.70;32.90
44851;DHT22;30583;48.714;9.386;2024-03-25T14:49:24;16.30;34.20
44851;DHT22;30583;48.714;9.386;2024-03-25T14:51:50;17.70;33.70
44851;DHT22;30583;48.714;9.386;2024-03-25T14:54:18;19.10;31.20
44851;DHT22;30583;48.714;9.386;2024-03-25T14:56:44;18.30;31.70
44851;DHT22;30583;48.714;9.386;2024-03-25T14:59:09;18.20;33.10
44851;DHT22;30583;48.714;9.386;2024-03-25T15:01:35;18.70;30.90
44851;DHT22;30583;48.714;9.386;2024-03-25T15:04:02;18.20;31.10
44851;DHT22;30583;48.714;9.386;2024-03-25T15:06:28;17.80;31.40
44851;DHT22;30583;48.714;9.386;2024-03-25T15:08:53;16.10;33.00
44851;DHT22;30583;48.714;9.386;2024-03-25T15:11:20;15.60;34.20
44851;DHT22;30583;48.714;9.386;2024-03-25T15:13:45;17.20;33.00
44851;DHT22;30583;48.714;9.386;2024-03-25T15:16:11;15.80;34.80
44851;DHT22;30583;48.714;9.386;2024-03-25T15:18:36;16.30;32.80
44851;DHT22;30583;48.714;9.386;2024-03-25T15:21:05;17.20;32.90
44851;DHT22;30583;48.714;9.386;2024-03-25T15:23:31;18.40;29.60
44851;DHT22;30583;48.714;9.386;2024-03-25T15:25:57;17.00;30.90
44851;DHT22;30583;48.714;9.386;2024-03-25T15:28:23;18.00;29.60
44851;DHT22;30583;48.714;9.386;2024-03-25T15:30:50;17.70;30.00
44851;DHT22;30583;48.714;9.386;2024-03-25T15:33:16;17.10;30.60
44851;DHT22;30583;48.714;9.386;2024-03-25T15:35:43;17.20;30.20